Terminal Aerodrome Forecast
Issued by NWS Albany, NY

Home | Current Version | Previous Version | Text Only | Print | Product List | Glossary On
Versions: 1 2 3 4 5 6 7 8 9 10 11 12 13 14 15 16 17 18 19 20 21
000
FTUS41 KALY 251136
TAFALB
TAF
KALB 251136Z 2512/2612 17008KT P6SM VCSH OVC090
      TEMPO 2512/2514 6SM -SHRA BR BKN060
     FM251400 17010G18KT P6SM VCSH OVC060
     FM252000 18014G23KT 6SM -SHRA BR OVC050
     FM260300 19012G22KT P6SM VCSH OVC050=

USA.gov is the U.S. government's official web portal to all federal, state and local government web resources and services.